• Join FlightAware (Why Join?)
  • Login
  • US Flag 
01:44AM EDT


 

Airport Tracker/Info


-or-


 

Live Flight TrackerFlight Track Log ✈ EJA839 ✈ 25-Apr-2013 ✈ TIST / STT - TJBQ / BQN

Flight Track Log - Related Links

Times and Time Zones

All times are in EDT time to prevent confusion due to time zone crossing. See the EJA839 flight status page for this flight to view local times or setup timezone preferences in your user account.

Time Position Orientation Groundspeed Altitude Reporting Facility
EDT Latitude Longitude Course Direction KTS MPH feet Rate Location/Type
01:52PM 18.3167 -64.9333 198° South 180 207 1,500  Level San Juan Center
01:53PM 18.2667 -64.9500 198° South 250 288 2,800 1,560 Climbing San Juan Center
01:54PM 18.2667 -65.0333 270° West 220 253 4,700 2,460 Climbing San Juan Center
01:55PM 18.2500 -65.1000 255° West 250 288 7,800 3,000 Climbing San Juan Center
01:56PM 18.2667 -65.1833 282° West 270 311 10,800 3,000 Climbing San Juan Center
01:57PM 18.2833 -65.2500 285° West 270 311 13,800 2,520 Climbing San Juan Center
01:58PM 18.3000 -65.3333 282° West 280 322 16,000 1,080 Climbing San Juan Center
01:59PM 18.3167 -65.4333 280° West 320 368 16,000  Level San Juan Center
02:00PM 18.3500 -65.5333 289° West 340 391 16,000  Level San Juan Center
02:01PM 18.3667 -65.6167 282° West 340 391 16,000  Level San Juan Center
02:02PM 18.3833 -65.7167 280° West 350 403 16,000  Level San Juan Center
02:03PM 18.4000 -65.8167 280° West 350 403 16,000  Level San Juan Center
02:04PM 18.4333 -65.9167 289° West 350 403 16,000  Level San Juan Center
02:05PM 18.4333 -66.0167 270° West 340 391 16,000  Level San Juan Center
02:06PM 18.4500 -66.1333 279° West 350 403 16,000  Level San Juan Center
02:07PM 18.4500 -66.2333 270° West 350 403 16,000  Level San Juan Center
02:08PM 18.4500 -66.3333 270° West 350 403 16,000  Level San Juan Center
02:09PM 18.4667 -66.4333 280° West 350 403 16,000  Level San Juan Center
02:10PM 18.4667 -66.5500 270° West 350 403 16,000 -300 Level San Juan Center
02:11PM 18.4667 -66.6500 270° West 350 403 15,500 -2,040 Descending San Juan Center
02:12PM 18.4833 -66.7333 282° West 310 357 12,000 -3,720 Descending San Juan Center
02:13PM 18.5000 -66.8167 282° West 280 322 8,000 -3,780 Descending San Juan Center
02:14PM 18.5000 -66.9000 270° West 280 322 4,500 -2,880 Descending San Juan Center
02:15PM 18.5167 -66.9667 285° West 250 288 2,200 -1,440 Descending San Juan Center
02:16PM 18.5167 -67.0333 270° West 210 242 1,700 -300 Descending San Juan Center
02:17PM 18.5167 -67.1000 270° West 200 230 1,700  Level San Juan Center
02:18PM 18.5167 -67.1500 270° West 180 207 1,700 -60 Level San Juan Center
02:19PM 18.5000 -67.1833 242° Southwest 120 138 1,600 -120 Descending San Juan Center
02:22PM 18.4949 -67.1294 137° Southeast  Level Estimated
02:29PM 18.4949 -67.1294 137° Southeast  Level Estimated